地図

経路データ

SID SEASON NUMBER BASIN SUBBASIN NAME ISO_TIME NATURE LAT LON WMO_WIND WMO_PRES WMO_AGENCY TRACK_TYPE DIST2LAND LANDFALL IFLAG USA_AGENCY USA_ATCF_ID USA_LAT USA_LON USA_RECORD USA_STATUS USA_WIND USA_PRES USA_SSHS USA_R34_NE USA_R34_SE USA_R34_SW USA_R34_NW USA_R50_NE USA_R50_SE USA_R50_SW USA_R50_NW USA_R64_NE USA_R64_SE USA_R64_SW USA_R64_NW USA_POCI USA_ROCI USA_RMW USA_EYE TOKYO_LAT TOKYO_LON TOKYO_GRADE TOKYO_WIND TOKYO_PRES TOKYO_R50_DIR TOKYO_R50_LONG TOKYO_R50_SHORT TOKYO_R30_DIR TOKYO_R30_LONG TOKYO_R30_SHORT TOKYO_LAND CMA_LAT CMA_LON CMA_CAT CMA_WIND CMA_PRES HKO_LAT HKO_LON HKO_CAT HKO_WIND HKO_PRES NEWDELHI_LAT NEWDELHI_LON NEWDELHI_GRADE NEWDELHI_WIND NEWDELHI_PRES NEWDELHI_CI NEWDELHI_DP NEWDELHI_POCI REUNION_LAT REUNION_LON REUNION_TYPE REUNION_WIND REUNION_PRES REUNION_TNUM REUNION_CI REUNION_RMW REUNION_R34_NE REUNION_R34_SE REUNION_R34_SW REUNION_R34_NW REUNION_R50_NE REUNION_R50_SE REUNION_R50_SW REUNION_R50_NW REUNION_R64_NE REUNION_R64_SE REUNION_R64_SW REUNION_R64_NW BOM_LAT BOM_LON BOM_TYPE BOM_WIND BOM_PRES BOM_TNUM BOM_CI BOM_RMW BOM_R34_NE BOM_R34_SE BOM_R34_SW BOM_R34_NW BOM_R50_NE BOM_R50_SE BOM_R50_SW BOM_R50_NW BOM_R64_NE BOM_R64_SE BOM_R64_SW BOM_R64_NW BOM_ROCI BOM_POCI BOM_EYE BOM_POS_METHOD BOM_PRES_METHOD NADI_LAT NADI_LON NADI_CAT NADI_WIND NADI_PRES WELLINGTON_LAT WELLINGTON_LON WELLINGTON_WIND WELLINGTON_PRES DS824_LAT DS824_LON DS824_STAGE DS824_WIND DS824_PRES TD9636_LAT TD9636_LON TD9636_STAGE TD9636_WIND TD9636_PRES TD9635_LAT TD9635_LON TD9635_WIND TD9635_PRES TD9635_ROCI NEUMANN_LAT NEUMANN_LON NEUMANN_CLASS NEUMANN_WIND NEUMANN_PRES MLC_LAT MLC_LON MLC_CLASS MLC_WIND MLC_PRES USA_GUST BOM_GUST BOM_GUST_PER REUNION_GUST REUNION_GUST_PER USA_SEAHGT USA_SEARAD_NE USA_SEARAD_SE USA_SEARAD_SW USA_SEARAD_NW STORM_SPEED STORM_DIR
1962189N09134 1962 47 WP MM NOT_NAMED 1962-07-08 06:00:00 TS 9.00000 134.467 main 881 871 O__O_____O____ jtwc_wp WP321962 9.00000 134.500 TD -1 9.00000 134.400 TD 25 1004 9.00000 134.500 TC 3 304
1962189N09134 1962 47 WP MM NOT_NAMED 1962-07-08 09:00:00 TS 9.06918 134.358 main 872 853 P__P_____P____ WP321962 9.09751 134.415 TD -1 9.01252 134.245 TD 25 1004 9.09751 134.415 TC 3 306
1962189N09134 1962 47 WP MM NOT_NAMED 1962-07-08 12:00:00 TS 9.16667 134.233 main 853 842 O__O_____O____ jtwc_wp WP321962 9.20000 134.300 TD -1 9.10000 134.100 TD 25 1004 9.20000 134.300 TC 4 310
1962189N09134 1962 47 WP MM NOT_NAMED 1962-07-08 15:00:00 TS 9.30498 134.075 main 844 825 P__P_____P____ WP321962 9.30748 134.130 TD -1 9.29997 133.965 TD 25 1004 9.30748 134.130 TC 5 306
1962189N09134 1962 47 WP MM NOT_NAMED 1962-07-08 18:00:00 TS 9.43333 133.867 main 825 796 O__O_____O____ jtwc_wp WP321962 9.40000 133.900 TD -1 9.50000 133.800 TD 25 1004 9.40000 133.900 TC 5 296
1962189N09134 1962 47 WP MM NOT_NAMED 1962-07-08 21:00:00 TS 9.52328 133.618 main 796 764 P__P_____P____ WP321962 9.47996 133.630 TD -1 9.60992 133.595 TD 25 1004 9.47996 133.630 TC 6 280
1962189N09134 1962 47 WP MM NOT_NAMED 1962-07-09 00:00:00 TS 9.53333 133.300 main 764 719 O__O_____O____ jtwc_wp WP321962 9.50000 133.300 TD -1 9.60000 133.300 TD 25 1004 9.50000 133.300 TC 7 263
1962189N09134 1962 47 WP MM NOT_NAMED 1962-07-09 03:00:00 TS 9.43500 132.906 main 719 673 P__P_____P____ WP321962 9.43747 132.923 TD -1 9.43007 132.872 TD 25 1004 9.43747 132.923 TC 9 252
1962189N09134 1962 47 WP MM NOT_NAMED 1962-07-09 06:00:00 TS 9.26667 132.467 main 673 625 O__O_____O____ jtwc_wp WP321962 9.30000 132.500 TD -1 9.20000 132.400 TD 25 1004 9.30000 132.500 TC 9 249
1962189N09134 1962 47 WP MM NOT_NAMED 1962-07-09 09:00:00 TS 9.10081 132.031 main 614 566 P__P_____P____ WP321962 9.12250 132.050 TD -1 9.05743 131.993 TD 25 1004 9.12250 132.050 TC 9 247
1962189N09134 1962 47 WP MM NOT_NAMED 1962-07-09 12:00:00 TS 8.90000 131.600 main 566 516 O__O_____O____ jtwc_wp WP321962 8.90000 131.600 TD -1 8.90000 131.600 TD 25 1004 8.90000 131.600 TC 9 240
1962189N09134 1962 47 WP MM NOT_NAMED 1962-07-09 15:00:00 TS 8.62241 131.205 main 516 469 P__P_____P____ WP321962 8.61241 131.200 TD -1 8.64241 131.215 TD 25 1004 8.61241 131.200 TC 9 238
1962189N09134 1962 47 WP MM NOT_NAMED 1962-07-09 18:00:00 TS 8.40000 130.800 main 469 413 O__O_____O____ jtwc_wp WP321962 8.40000 130.800 TD -1 8.40000 130.800 TD 25 1004 8.40000 130.800 TC 9 253
1962189N09134 1962 47 WP MM NOT_NAMED 1962-07-09 21:00:00 TS 8.34260 130.298 main 413 372 P__P_____P____ WP321962 8.39759 130.313 TD -1 8.23262 130.270 TD 25 1004 8.39759 130.313 TC 9 270
1962189N09134 1962 47 WP MM NOT_NAMED 1962-07-10 00:00:00 TS 8.40000 129.867 main 372 350 O__O_____O____ jtwc_wp WP321962 8.50000 129.900 TD -1 8.20000 129.800 TD 25 1004 8.50000 129.900 TC 7 286
1962189N09134 1962 47 WP MM NOT_NAMED 1962-07-10 03:00:00 TS 8.52074 129.650 main 353 338 P__P_____P____ WP321962 8.59990 129.705 TD -1 8.36240 129.540 TD 25 1004 8.59990 129.705 TC 4 309
1962189N09134 1962 47 WP MM NOT_NAMED 1962-07-10 06:00:00 TS 8.66667 129.533 main 338 328 O__O_____O____ jtwc_wp WP321962 8.70000 129.600 TD -1 8.60000 129.400 TD 25 1004 8.70000 129.600 TC 3 311
1962189N09134 1962 47 WP MM NOT_NAMED 1962-07-10 09:00:00 TS 8.74749 129.390 main 328 321 P__P_____P____ WP321962 8.74250 129.442 TD -1 8.75748 129.285 TD 25 1004 8.74250 129.442 TC 3 302
1962189N09134 1962 47 WP MM NOT_NAMED 1962-07-10 12:00:00 TS 8.83333 129.267 main 321 315 O__O_____O____ jtwc_wp WP321962 8.80000 129.300 TD -1 8.90000 129.200 TD 25 1004 8.80000 129.300 TC 3 313
1962189N09134 1962 47 WP MM NOT_NAMED 1962-07-10 15:00:00 TS 8.96833 129.154 main 317 307 P__P_____P____ WP321962 8.92750 129.185 TD -1 9.05000 129.092 TD 25 1004 8.92750 129.185 TC 4 327
1962189N09134 1962 47 WP MM NOT_NAMED 1962-07-10 18:00:00 TS 9.13333 129.067 main 309 300 O__O_____O____ jtwc_wp WP321962 9.10000 129.100 TD -1 9.20000 129.000 TD 25 1005 9.10000 129.100 TC 4 337
1962189N09134 1962 47 WP MM NOT_NAMED 1962-07-10 21:00:00 TS 9.30166 129.009 main 301 301 P__P_____P____ WP321962 9.28500 129.042 TD -1 9.33500 128.942 TD 25 1005 9.28500 129.042 TC 4 345
1962189N09134 1962 47 WP MM NOT_NAMED 1962-07-11 00:00:00 TS 9.50000 128.967 main 306 299 O__O_____O____ jtwc_wp WP321962 9.50000 129.000 TD -1 9.50000 128.900 TD 25 1006 9.50000 129.000 TC 4 350
1962189N09134 1962 47 WP MM NOT_NAMED 1962-07-11 03:00:00 TS 9.72250 128.924 main 301 301 P__P_____P____ WP321962 9.72750 128.957 TD -1 9.71250 128.857 TD 25 1006 9.72750 128.957 TC 5 349
1962189N09134 1962 47 WP MM NOT_NAMED 1962-07-11 06:00:00 TS 10.0000 128.867 main 309 302 O__O_____O____ jtwc_wp WP321962 10.0000 128.900 TD -1 10.0000 128.800 TD 25 1006 10.0000 128.900 TC 7 347
1962189N09134 1962 47 WP MM NOT_NAMED 1962-07-11 09:00:00 TS 10.3642 128.777 main 315 310 P__P_____P____ WP321962 10.3425 128.808 TD -1 10.4075 128.715 TD 25 1006 10.3425 128.808 TC 8 345
1962189N09134 1962 47 WP MM NOT_NAMED 1962-07-11 12:00:00 TS 10.7333 128.667 main 318 305 O__O_____O____ jtwc_wp WP321962 10.7000 128.700 TD -1 10.8000 128.600 TD 25 1006 10.7000 128.700 TC 7 341
1962189N09134 1962 47 WP MM NOT_NAMED 1962-07-11 15:00:00 TS 11.0125 128.550 main 305 294 P__P_____P____ WP321962 11.0150 128.600 TD -1 11.0075 128.450 TD 25 1006 11.0150 128.600 TC 6 338
1962189N09134 1962 47 WP MM NOT_NAMED 1962-07-11 18:00:00 TS 11.2727 128.445 main 285 285 O__O_____O____ jtwc_wp WP321962 11.3000 128.500 TD -1 11.2000 128.300 TD 25 1006 11.3000 128.500 TC 6 342
1962189N09134 1962 47 WP MM NOT_NAMED 1962-07-11 21:00:00 TS 11.5540 128.369 main 291 280 P__P_____P____ WP321962 11.5650 128.415 TD -1 11.5100 128.188 TD 25 1006 11.5650 128.415 TC 6 342
1962189N09134 1962 47 WP MM NOT_NAMED 1962-07-12 00:00:00 TS 11.8143 128.271 main 287 274 O__O_____O____ jtwc_wp WP321962 11.8000 128.300 TD -1 11.9000 128.100 TD 25 1006 11.8000 128.300 TC 5 332
1962189N09134 1962 47 WP MM NOT_NAMED 1962-07-12 03:00:00 TS 12.0076 128.120 main 274 261 P________P____ WP321962 12.0076 128.120 TD -1 TD 12.0076 128.120 TC 5 317
1962189N09134 1962 47 WP MM NOT_NAMED 1962-07-12 06:00:00 TS 12.2000 127.900 main 261 O________O____ jtwc_wp WP321962 12.2000 127.900 TD -1 12.2000 127.900 TC 6 311

デジタル台風データ・検索

IBTrACS Databaseについて

本データベースは、米国NOAAが公開する1842年以降の世界の熱帯低気圧のベストトラックデータアーカイブInternational Best Track Archive for Climate Stewardship (IBTrACS)を、ウェブで閲覧しやすい形式に変換したものです。

最終更新日:2021-12-03